Time;durP1;ratioP1;P1;durP2;ratioP2;P2;SDS_P1;SDS_P2;PMS_P1;PMS_P2;Temp;Humidity;BMP_temperature;BMP_pressure;BME280_temperature;BME280_humidity;BME280_pressure;Samples;Min_cycle;Max_cycle;Signal;HPM_P1;HPM_P2
2023/10/02 00:01:17;;;;;;;16.08;9.27;;;16.40;99.90;;;;;;4995009;28;20034;-71
2023/10/02 00:03:44;;;;;;;18.20;9.85;;;16.40;99.90;;;;;;4989241;28;20487;-72
2023/10/02 00:06:16;;;;;;;16.33;9.60;;;16.40;99.90;;;;;;4991859;28;20022;-71
2023/10/02 00:08:51;;;;;;;17.58;9.80;;;16.40;99.90;;;;;;4998906;28;20038;-72
2023/10/02 00:11:41;;;;;;;19.48;10.18;;;16.40;99.90;;;;;;4994719;28;20267;-72
2023/10/02 00:14:18;;;;;;;14.77;9.02;;;16.30;99.90;;;;;;4996475;28;20018;-72
2023/10/02 00:17:03;;;;;;;15.95;9.43;;;16.30;99.90;;;;;;5002987;28;20030;-72
2023/10/02 00:19:35;;;;;;;18.90;9.75;;;16.30;99.90;;;;;;4989136;28;20073;-72
2023/10/02 00:24:58;;;;;;;21.23;9.18;;;16.40;99.90;;;;;;4996251;28;20125;-72
2023/10/02 00:27:24;;;;;;;19.40;11.00;;;16.30;99.90;;;;;;4993359;28;20092;-72
2023/10/02 00:29:57;;;;;;;20.60;9.10;;;16.30;99.90;;;;;;5002101;28;20034;-71
2023/10/02 00:32:29;;;;;;;18.88;10.30;;;16.20;99.90;;;;;;4995112;28;20054;-72
2023/10/02 00:34:55;;;;;;;19.65;9.32;;;16.10;99.90;;;;;;4999586;28;20030;-71
2023/10/02 00:37:21;;;;;;;17.45;9.18;;;16.10;99.90;;;;;;4993572;28;20043;-71
2023/10/02 00:39:52;;;;;;;21.50;10.00;;;16.20;99.90;;;;;;4995584;28;20029;-71
2023/10/02 00:42:24;;;;;;;19.58;9.43;;;16.10;99.90;;;;;;4996270;28;20053;-72
2023/10/02 00:44:54;;;;;;;24.92;11.80;;;16.10;99.90;;;;;;4994907;28;20563;-72
2023/10/02 00:47:41;;;;;;;19.75;10.38;;;16.00;99.90;;;;;;4996151;28;20034;-72
2023/10/02 00:50:16;;;;;;;21.48;10.82;;;16.10;99.90;;;;;;4988965;28;20084;-72
2023/10/02 00:52:46;;;;;;;18.60;10.18;;;16.00;99.90;;;;;;4979855;28;20030;-72
2023/10/02 00:55:15;;;;;;;16.55;10.05;;;16.00;99.90;;;;;;5000178;28;20026;-72
2023/10/02 00:57:42;;;;;;;18.95;10.48;;;16.00;99.90;;;;;;4995511;28;20026;-72
2023/10/02 01:00:19;;;;;;;23.73;11.02;;;16.00;99.90;;;;;;5004786;28;20042;-72
2023/10/02 01:02:57;;;;;;;21.17;10.23;;;16.00;99.90;;;;;;4989958;28;20030;-72
2023/10/02 01:05:41;;;;;;;21.52;10.20;;;16.00;99.90;;;;;;4997817;28;20022;-72
2023/10/02 01:08:25;;;;;;;;;;;15.90;99.90;;;;;;4998812;28;20030;-71
2023/10/02 01:10:59;;;;;;;22.30;11.05;;;15.80;99.90;;;;;;4987987;28;20023;-72
2023/10/02 01:13:29;;;;;;;21.95;11.65;;;15.80;99.90;;;;;;4995056;28;20022;-72
2023/10/02 01:16:08;;;;;;;18.05;10.38;;;15.90;99.90;;;;;;4999236;28;20039;-72
2023/10/02 01:18:39;;;;;;;21.80;10.90;;;15.80;99.90;;;;;;5002912;28;20083;-72
2023/10/02 01:21:11;;;;;;;21.23;11.23;;;15.80;99.90;;;;;;4994294;28;20030;-72
2023/10/02 01:24:10;;;;;;;24.50;11.40;;;15.80;99.90;;;;;;5000491;28;20041;-72
2023/10/02 01:26:50;;;;;;;22.73;11.52;;;15.80;99.90;;;;;;4993072;28;20022;-72
2023/10/02 01:29:16;;;;;;;23.92;10.77;;;15.80;99.90;;;;;;4992335;28;20042;-72
2023/10/02 01:31:42;;;;;;;19.80;11.07;;;15.80;99.90;;;;;;5001052;28;20477;-72
2023/10/02 01:34:33;;;;;;;23.33;11.77;;;15.80;99.90;;;;;;5000666;28;20437;-72
2023/10/02 01:37:00;;;;;;;22.95;11.45;;;15.90;99.90;;;;;;4991279;28;20065;-72
2023/10/02 01:39:26;;;;;;;23.58;11.57;;;15.90;99.90;;;;;;5000032;28;20081;-72
2023/10/02 01:41:54;;;;;;;23.75;12.02;;;15.90;99.90;;;;;;4992709;28;20448;-72
2023/10/02 01:44:22;;;;;;;19.88;11.27;;;16.00;99.90;;;;;;4991742;28;20030;-72
2023/10/02 01:46:49;;;;;;;21.40;11.13;;;15.90;99.90;;;;;;5000252;28;20384;-71
2023/10/02 01:49:25;;;;;;;25.98;12.18;;;15.80;99.90;;;;;;4995965;28;20041;-72
2023/10/02 01:51:57;;;;;;;22.92;11.48;;;15.70;99.90;;;;;;4996807;28;20092;-72
2023/10/02 01:54:25;;;;;;;22.60;11.98;;;15.70;99.90;;;;;;4998993;28;20030;-72
2023/10/02 01:56:51;;;;;;;25.02;12.18;;;15.80;99.90;;;;;;4995214;28;20053;-71
2023/10/02 01:59:19;;;;;;;22.80;11.35;;;15.70;99.90;;;;;;4993130;28;20050;-72
2023/10/02 02:01:57;;;;;;;23.13;10.80;;;15.80;99.90;;;;;;4999114;28;20384;-72
2023/10/02 02:04:23;;;;;;;28.55;12.95;;;15.70;99.90;;;;;;4993887;28;20063;-72
2023/10/02 02:06:55;;;;;;;23.85;12.10;;;15.60;99.90;;;;;;5008599;28;20029;-71
2023/10/02 02:09:31;;;;;;;24.48;11.50;;;15.60;99.90;;;;;;5001050;28;20395;-71
2023/10/02 02:12:10;;;;;;;24.80;11.43;;;15.60;99.90;;;;;;4999590;28;20038;-71
2023/10/02 02:14:49;;;;;;;25.88;12.02;;;15.40;99.90;;;;;;5001517;28;20105;-72
2023/10/02 02:17:26;;;;;;;23.02;12.38;;;15.40;99.90;;;;;;4993216;28;20022;-72
2023/10/02 02:19:52;;;;;;;23.60;11.55;;;15.40;99.90;;;;;;5002447;28;20041;-71
2023/10/02 02:22:26;;;;;;;26.02;12.70;;;15.20;99.90;;;;;;4996304;28;20435;-72
2023/10/02 02:25:00;;;;;;;24.48;10.25;;;15.00;99.90;;;;;;4998840;28;20050;-71
2023/10/02 02:27:27;;;;;;;23.15;12.10;;;15.10;99.90;;;;;;4990973;28;20030;-72
2023/10/02 02:29:56;;;;;;;25.55;12.20;;;15.10;99.90;;;;;;4991977;28;20039;-72
2023/10/02 02:32:52;;;;;;;21.92;11.07;;;15.00;99.90;;;;;;4999465;28;20026;-71
2023/10/02 02:35:13;;;;;;;27.40;11.95;;;15.00;99.90;;;;;;4994919;28;20137;-72
2023/10/02 02:37:41;;;;;;;25.73;11.80;;;14.90;99.90;;;;;;5000331;28;20053;-72
2023/10/02 02:40:23;;;;;;;23.38;12.05;;;15.00;99.90;;;;;;4997907;28;20033;-72
2023/10/02 02:42:52;;;;;;;28.50;12.18;;;15.00;99.90;;;;;;4993394;28;20038;-71
2023/10/02 02:45:28;;;;;;;24.30;12.13;;;14.90;99.90;;;;;;4990692;28;20132;-72
2023/10/02 02:47:55;;;;;;;33.40;12.63;;;14.80;99.90;;;;;;4995381;28;20089;-71
2023/10/02 02:50:28;;;;;;;23.50;12.43;;;14.90;99.90;;;;;;4995150;28;20029;-72
2023/10/02 02:55:38;;;;;;;25.65;12.32;;;15.00;99.90;;;;;;4998200;28;20057;-72
2023/10/02 02:58:07;;;;;;;21.60;12.02;;;14.90;99.90;;;;;;4994681;28;20030;-72
2023/10/02 03:00:35;;;;;;;26.58;12.18;;;14.90;99.90;;;;;;4995522;28;20034;-72
2023/10/02 03:03:02;;;;;;;35.03;12.80;;;15.30;99.90;;;;;;4995765;28;20081;-71
2023/10/02 03:05:38;;;;;;;23.98;11.43;;;15.40;99.90;;;;;;4995033;28;20018;-73
2023/10/02 03:08:05;;;;;;;26.08;12.98;;;15.20;99.90;;;;;;4998584;28;20629;-72
2023/10/02 03:10:37;;;;;;;22.08;10.88;;;15.00;99.90;;;;;;4988470;28;20038;-72
2023/10/02 03:13:03;;;;;;;24.67;11.65;;;14.80;99.90;;;;;;4984437;28;20117;-71
2023/10/02 03:15:47;;;;;;;24.85;12.18;;;14.80;99.90;;;;;;4992463;28;20417;-72
2023/10/02 03:18:31;;;;;;;24.27;12.13;;;14.70;99.90;;;;;;4983576;28;20022;-72
2023/10/02 03:21:43;;;;;;;27.67;12.85;;;14.80;99.90;;;;;;4986266;28;20030;-72
2023/10/02 03:23:58;;;;;;;27.33;13.10;;;14.90;99.90;;;;;;4980036;28;20051;-72
2023/10/02 03:29:02;;;;;;;22.85;11.90;;;14.90;99.90;;;;;;4989016;28;20038;-72
2023/10/02 03:31:49;;;;;;;23.85;11.88;;;14.80;99.90;;;;;;4984739;28;20132;-71
2023/10/02 03:34:27;;;;;;;24.65;13.32;;;14.90;99.90;;;;;;4988215;28;20030;-72
2023/10/02 03:42:22;;;;;;;27.80;13.25;;;15.00;99.90;;;;;;4992283;28;20411;-71
2023/10/02 03:44:54;;;;;;;29.90;13.10;;;14.90;99.90;;;;;;4988086;28;20057;-71
2023/10/02 03:47:22;;;;;;;27.95;13.35;;;14.80;99.90;;;;;;4991186;28;20029;-71
2023/10/02 03:49:48;;;;;;;23.17;11.23;;;14.90;99.90;;;;;;4994291;28;20293;-70
2023/10/02 03:52:16;;;;;;;24.15;12.50;;;14.90;99.90;;;;;;4989004;28;20038;-71
2023/10/02 03:54:43;;;;;;;23.85;13.10;;;15.00;99.90;;;;;;4993131;28;20022;-71
2023/10/02 03:57:11;;;;;;;26.75;13.10;;;15.00;99.90;;;;;;4995327;28;20034;-71
2023/10/02 03:59:52;;;;;;;30.02;13.38;;;14.90;99.90;;;;;;4992430;28;20153;-71
2023/10/02 04:02:26;;;;;;;24.20;11.73;;;14.80;99.90;;;;;;4986844;28;20061;-71
2023/10/02 04:04:51;;;;;;;;;;;14.70;99.90;;;;;;4992923;28;20092;-71
2023/10/02 04:07:17;;;;;;;26.08;12.50;;;14.70;99.90;;;;;;4995519;28;19910;-71
2023/10/02 04:09:50;;;;;;;27.90;12.93;;;14.70;99.90;;;;;;4988917;28;20393;-71
2023/10/02 04:12:19;;;;;;;27.65;12.85;;;14.70;99.90;;;;;;4984299;28;20368;-71
2023/10/02 04:14:45;;;;;;;24.92;12.60;;;14.40;99.90;;;;;;4992141;28;20030;-71
2023/10/02 04:19:49;;;;;;;26.27;12.38;;;14.40;99.90;;;;;;4983792;28;20044;-71
2023/10/02 04:22:25;;;;;;;29.85;12.25;;;14.40;99.90;;;;;;4983341;28;20027;-73
2023/10/02 04:24:58;;;;;;;26.40;12.40;;;14.30;99.90;;;;;;4983117;28;20539;-71
2023/10/02 04:27:28;;;;;;;31.83;13.15;;;14.30;99.90;;;;;;4984494;28;20034;-71
2023/10/02 04:32:34;;;;;;;30.13;13.35;;;14.30;99.90;;;;;;4987621;28;20042;-71
2023/10/02 04:35:02;;;;;;;29.38;12.82;;;14.40;99.90;;;;;;4991210;28;20041;-71
2023/10/02 04:37:36;;;;;;;29.58;12.55;;;14.40;99.90;;;;;;4983931;28;20033;-71
2023/10/02 04:40:14;;;;;;;29.43;14.77;;;14.60;99.90;;;;;;4984337;28;20413;-71
2023/10/02 04:43:14;;;;;;;27.40;13.52;;;14.70;99.90;;;;;;4990423;28;20042;-71
2023/10/02 04:45:41;;;;;;;26.25;13.63;;;14.70;99.90;;;;;;4992195;28;20062;-71
2023/10/02 04:48:09;;;;;;;27.42;13.65;;;14.60;99.90;;;;;;4983376;28;20370;-71
2023/10/02 04:50:46;;;;;;;25.42;12.45;;;14.50;99.90;;;;;;4984241;28;20378;-71
2023/10/02 04:53:19;;;;;;;25.23;13.27;;;14.50;99.90;;;;;;4991159;28;20048;-73
2023/10/02 04:55:48;;;;;;;26.42;13.82;;;14.50;99.90;;;;;;4989490;28;20116;-71
2023/10/02 04:58:19;;;;;;;29.65;13.63;;;14.40;99.90;;;;;;4988030;28;20134;-71
2023/10/02 05:03:36;;;;;;;24.38;12.82;;;14.10;99.90;;;;;;4983728;28;20096;-72
2023/10/02 05:06:03;;;;;;;26.38;13.38;;;14.10;99.90;;;;;;4985469;28;20073;-72
2023/10/02 05:11:06;;;;;;;31.15;14.52;;;14.20;99.90;;;;;;4984398;28;20033;-71
2023/10/02 05:13:45;;;;;;;32.55;14.23;;;14.20;99.90;;;;;;4986204;28;20022;-71
2023/10/02 05:16:14;;;;;;;29.77;14.50;;;14.30;99.90;;;;;;4985616;28;20080;-71
2023/10/02 05:18:47;;;;;;;35.25;14.32;;;14.30;99.90;;;;;;4988091;28;20496;-72
2023/10/02 05:21:17;;;;;;;30.13;13.17;;;14.30;99.90;;;;;;5000610;28;20030;-71
2023/10/02 05:24:00;;;;;;;29.85;13.70;;;14.30;99.90;;;;;;4991112;28;20285;-71
2023/10/02 05:26:41;;;;;;;27.38;12.75;;;14.30;99.90;;;;;;4995544;28;20568;-71
2023/10/02 05:29:17;;;;;;;57.60;16.13;;;14.30;99.90;;;;;;4992476;28;20081;-72
2023/10/02 05:31:45;;;;;;;29.60;15.10;;;14.40;99.90;;;;;;4994334;28;20507;-72
2023/10/02 05:34:25;;;;;;;26.88;13.05;;;14.30;99.90;;;;;;4990475;28;20025;-72
2023/10/02 05:39:50;;;;;;;27.90;13.93;;;14.60;99.90;;;;;;4988768;28;20022;-71
2023/10/02 05:42:16;;;;;;;33.22;14.52;;;14.60;99.90;;;;;;4990710;28;20026;-72
2023/10/02 05:44:45;;;;;;;28.50;13.38;;;14.50;99.90;;;;;;4987017;28;20037;-71
2023/10/02 05:47:15;;;;;;;29.25;13.48;;;14.40;99.90;;;;;;4986972;28;20087;-71
2023/10/02 05:49:47;;;;;;;26.98;13.38;;;14.40;99.90;;;;;;4986319;28;20033;-72
2023/10/02 05:52:18;;;;;;;27.08;13.55;;;14.30;99.90;;;;;;4989945;28;20553;-72
2023/10/02 05:54:49;;;;;;;29.25;13.98;;;14.30;99.90;;;;;;4985720;28;20023;-72
2023/10/02 05:57:16;;;;;;;25.73;13.85;;;14.20;99.90;;;;;;4986824;28;20043;-71
2023/10/02 05:59:48;;;;;;;30.65;13.88;;;14.10;99.90;;;;;;4980750;28;20054;-72
2023/10/02 06:02:19;;;;;;;27.15;13.98;;;14.10;99.90;;;;;;4985665;28;20037;-72
2023/10/02 06:04:47;;;;;;;29.17;13.73;;;14.00;99.90;;;;;;4994287;28;20062;-73
2023/10/02 06:07:19;;;;;;;29.45;13.68;;;14.10;99.90;;;;;;4985436;28;20027;-71
2023/10/02 06:09:48;;;;;;;36.88;15.77;;;14.10;99.90;;;;;;4995884;28;20068;-72
2023/10/02 06:12:14;;;;;;;27.33;14.05;;;14.20;99.90;;;;;;4992911;28;20084;-73
2023/10/02 06:14:42;;;;;;;30.30;13.82;;;14.40;99.90;;;;;;4992202;28;20096;-72
2023/10/02 06:17:12;;;;;;;29.50;12.98;;;14.40;99.90;;;;;;4985423;28;20114;-71
2023/10/02 06:19:44;;;;;;;32.00;15.00;;;14.40;99.90;;;;;;4986156;28;20037;-71
2023/10/02 06:22:13;;;;;;;29.98;13.82;;;14.50;99.90;;;;;;4990007;28;20022;-71
2023/10/02 06:24:40;;;;;;;30.10;15.35;;;14.60;99.90;;;;;;4991937;28;20061;-71
2023/10/02 06:27:16;;;;;;;28.63;14.25;;;14.60;99.90;;;;;;4984868;28;20027;-71
2023/10/02 06:29:49;;;;;;;27.10;12.80;;;14.60;99.90;;;;;;4991525;28;20093;-71
2023/10/02 06:32:23;;;;;;;26.50;13.87;;;14.50;99.90;;;;;;4986096;28;20046;-71
2023/10/02 06:34:57;;;;;;;31.25;14.95;;;14.60;99.90;;;;;;4985406;28;20285;-72
2023/10/02 06:37:32;;;;;;;28.30;14.18;;;14.70;99.90;;;;;;4991138;28;20054;-71
2023/10/02 06:40:06;;;;;;;27.90;13.38;;;14.70;99.90;;;;;;4984910;28;20034;-71
2023/10/02 06:42:32;;;;;;;31.70;14.40;;;14.70;99.90;;;;;;4986187;28;20066;-71
2023/10/02 06:45:02;;;;;;;31.55;14.50;;;14.80;99.90;;;;;;4990965;28;20110;-71
2023/10/02 06:47:32;;;;;;;30.45;14.80;;;14.70;99.90;;;;;;4988312;28;20063;-71
2023/10/02 06:50:27;;;;;;;22.02;11.82;;;14.70;99.90;;;;;;4983661;28;20042;-70
2023/10/02 06:52:51;;;;;;;29.90;13.75;;;15.10;99.90;;;;;;4995515;28;20045;-72
2023/10/02 06:55:17;;;;;;;30.73;13.23;;;15.10;99.90;;;;;;4996625;28;20030;-72
2023/10/02 06:57:49;;;;;;;30.80;14.43;;;14.90;99.90;;;;;;4984951;28;20030;-72
2023/10/02 07:00:19;;;;;;;29.25;13.88;;;14.80;99.90;;;;;;4992674;28;20642;-72
2023/10/02 07:02:58;;;;;;;27.73;13.23;;;14.80;99.90;;;;;;4997103;28;20096;-71
2023/10/02 07:05:32;;;;;;;30.65;13.93;;;14.80;99.90;;;;;;4986950;28;20029;-73
2023/10/02 07:08:01;;;;;;;37.60;15.60;;;14.70;99.90;;;;;;4983070;28;20029;-71
2023/10/02 07:10:29;;;;;;;27.45;13.07;;;14.60;99.90;;;;;;4998675;28;20115;-72
2023/10/02 07:12:55;;;;;;;26.02;13.45;;;14.70;99.90;;;;;;4994221;28;20032;-72
2023/10/02 07:15:26;;;;;;;27.77;13.82;;;14.80;99.90;;;;;;4991126;28;20034;-71
2023/10/02 07:18:00;;;;;;;28.83;13.65;;;14.90;99.90;;;;;;4991585;28;20026;-73
2023/10/02 07:20:42;;;;;;;;;;;15.00;99.90;;;;;;4987025;28;20491;-72
2023/10/02 07:23:19;;;;;;;33.15;15.00;;;15.10;99.90;;;;;;4992694;28;19909;-73
2023/10/02 07:25:51;;;;;;;28.08;13.98;;;15.10;99.90;;;;;;4996015;28;20030;-73
2023/10/02 07:28:21;;;;;;;32.60;16.23;;;15.20;99.90;;;;;;4986532;28;20022;-73
2023/10/02 07:30:50;;;;;;;32.70;14.32;;;15.20;99.90;;;;;;4990484;28;20124;-73
2023/10/02 07:33:18;;;;;;;27.55;13.77;;;15.30;99.90;;;;;;4994488;28;20048;-73
2023/10/02 07:35:53;;;;;;;28.55;12.75;;;15.40;99.90;;;;;;4999757;28;20412;-73
2023/10/02 07:38:21;;;;;;;31.40;14.85;;;15.40;99.90;;;;;;4988435;28;20060;-73
2023/10/02 07:40:48;;;;;;;28.88;13.43;;;15.40;99.90;;;;;;4990952;28;20436;-73
2023/10/02 07:43:18;;;;;;;30.90;14.95;;;15.40;99.90;;;;;;4994403;28;20504;-73
2023/10/02 07:45:45;;;;;;;29.42;14.35;;;15.50;99.90;;;;;;4994049;28;20088;-72
2023/10/02 07:48:16;;;;;;;29.05;13.82;;;15.60;99.90;;;;;;4991612;28;20506;-72
2023/10/02 07:50:44;;;;;;;29.30;14.32;;;15.60;99.90;;;;;;4991113;28;20054;-72
2023/10/02 07:53:10;;;;;;;35.78;15.43;;;15.70;99.90;;;;;;4997550;28;20022;-73
2023/10/02 07:55:47;;;;;;;36.25;16.55;;;15.50;99.90;;;;;;4985200;28;20093;-72
2023/10/02 07:58:16;;;;;;;29.55;13.40;;;15.70;99.90;;;;;;4993048;28;20462;-71
2023/10/02 08:00:42;;;;;;;28.65;14.30;;;15.70;99.90;;;;;;4990753;28;20029;-72
2023/10/02 08:06:00;;;;;;;28.60;14.82;;;15.70;99.90;;;;;;4986143;28;20048;-72
2023/10/02 08:08:33;;;;;;;31.77;15.27;;;15.80;99.90;;;;;;4997366;28;20095;-72
2023/10/02 08:11:02;;;;;;;37.20;17.33;;;15.90;99.90;;;;;;4992535;28;20137;-71
2023/10/02 08:13:35;;;;;;;38.08;16.27;;;16.00;99.90;;;;;;4989036;28;20023;-71
2023/10/02 08:16:17;;;;;;;32.90;16.02;;;16.00;99.90;;;;;;4985163;28;20030;-73
2023/10/02 08:18:58;;;;;;;31.52;14.63;;;16.10;99.90;;;;;;4984573;28;20061;-72
2023/10/02 08:21:35;;;;;;;29.98;15.10;;;16.20;99.90;;;;;;4984205;28;20126;-71
2023/10/02 08:24:05;;;;;;;35.53;15.27;;;16.10;99.90;;;;;;4991303;28;20046;-73
2023/10/02 08:26:38;;;;;;;37.08;16.42;;;16.20;99.90;;;;;;4984182;28;20038;-72
2023/10/02 08:29:06;;;;;;;32.97;14.77;;;16.20;99.90;;;;;;4985348;28;20057;-72
2023/10/02 08:31:33;;;;;;;31.52;14.27;;;16.30;99.90;;;;;;4987335;28;20022;-72
2023/10/02 08:34:05;;;;;;;32.17;14.70;;;16.30;99.90;;;;;;4984721;28;20202;-71
2023/10/02 08:36:32;;;;;;;32.15;16.00;;;16.30;99.90;;;;;;4984498;28;20034;-71
2023/10/02 08:38:59;;;;;;;32.42;15.80;;;16.50;99.90;;;;;;4997309;28;20030;-73
2023/10/02 08:41:27;;;;;;;29.70;16.17;;;16.60;99.90;;;;;;4989930;28;20038;-72
2023/10/02 08:43:54;;;;;;;33.13;15.85;;;16.70;99.90;;;;;;4990880;28;20165;-72
2023/10/02 08:46:21;;;;;;;31.40;15.77;;;16.70;99.90;;;;;;4990868;28;20674;-72
2023/10/02 08:48:57;;;;;;;32.30;14.90;;;16.80;99.90;;;;;;4991679;28;20071;-72
2023/10/02 08:51:32;;;;;;;32.40;15.15;;;16.80;99.90;;;;;;4994156;28;20127;-72
2023/10/02 08:54:05;;;;;;;28.40;13.75;;;17.00;99.90;;;;;;4985880;28;20034;-72
2023/10/02 08:56:43;;;;;;;32.70;14.30;;;17.00;99.90;;;;;;4992431;28;20635;-73
2023/10/02 08:59:26;;;;;;;31.13;16.13;;;17.00;99.90;;;;;;4991980;28;20125;-72
2023/10/02 09:02:13;;;;;;;33.55;15.80;;;17.10;99.90;;;;;;4997875;28;20080;-72
2023/10/02 09:04:40;;;;;;;30.02;15.48;;;17.10;99.90;;;;;;4990593;28;20085;-72
2023/10/02 09:07:24;;;;;;;36.30;15.80;;;17.10;99.90;;;;;;4988400;28;20121;-73
2023/10/02 09:10:12;;;;;;;35.90;15.85;;;17.20;99.90;;;;;;4999141;28;20038;-72
2023/10/02 09:12:48;;;;;;;31.38;16.17;;;17.30;99.90;;;;;;4996142;28;20026;-72
2023/10/02 09:15:29;;;;;;;33.38;15.65;;;17.30;99.90;;;;;;4995355;28;20030;-73
2023/10/02 09:17:57;;;;;;;32.70;16.00;;;17.40;99.90;;;;;;4992709;28;20077;-72
2023/10/02 09:20:38;;;;;;;32.55;15.93;;;17.40;99.90;;;;;;4985661;28;20037;-72
2023/10/02 09:23:13;;;;;;;29.83;16.20;;;17.40;99.90;;;;;;4988981;28;20073;-72
2023/10/02 09:26:16;;;;;;;32.05;15.30;;;17.50;99.90;;;;;;4987116;28;20032;-72
2023/10/02 09:28:44;;;;;;;38.33;17.00;;;17.60;99.90;;;;;;4994740;28;20038;-72
2023/10/02 09:31:14;;;;;;;35.25;17.52;;;17.80;99.90;;;;;;4995854;28;20061;-72
2023/10/02 09:33:46;;;;;;;29.83;14.90;;;17.90;99.90;;;;;;4988728;28;20033;-72
2023/10/02 09:36:19;;;;;;;36.47;16.55;;;17.90;99.90;;;;;;4995829;28;20018;-73
2023/10/02 09:38:46;;;;;;;32.65;15.75;;;17.90;99.90;;;;;;4987381;28;20314;-73
2023/10/02 09:41:15;;;;;;;29.98;15.77;;;18.10;99.90;;;;;;4995581;28;20626;-72
2023/10/02 09:43:41;;;;;;;32.83;16.33;;;18.10;99.90;;;;;;4988234;28;20478;-72
2023/10/02 09:46:21;;;;;;;32.92;16.05;;;18.30;99.90;;;;;;4989150;28;20026;-72
2023/10/02 09:49:09;;;;;;;29.40;15.00;;;18.20;99.90;;;;;;4987641;28;20060;-73
2023/10/02 09:52:09;;;;;;;30.92;16.08;;;18.30;99.90;;;;;;4987218;28;20034;-72
2023/10/02 09:54:50;;;;;;;32.72;16.92;;;18.30;99.90;;;;;;4995416;28;20033;-72
2023/10/02 09:57:25;;;;;;;35.42;16.25;;;18.50;99.90;;;;;;4994623;28;20045;-72
2023/10/02 09:59:54;;;;;;;28.55;15.05;;;18.50;99.90;;;;;;5005777;28;20069;-71
2023/10/02 10:13:37;;;;;;;33.08;17.35;;;19.10;99.90;;;;;;4995340;28;20444;-72
2023/10/02 10:16:21;;;;;;;31.88;15.35;;;19.10;99.90;;;;;;4998860;28;20030;-71
2023/10/02 10:21:56;;;;;;;29.88;13.60;;;19.30;99.90;;;;;;4988178;28;20034;-73
2023/10/02 10:24:57;;;;;;;34.83;16.60;;;19.50;99.90;;;;;;4989175;28;20041;-72
2023/10/02 10:27:40;;;;;;;33.88;16.75;;;19.70;99.90;;;;;;4987999;28;20029;-73
2023/10/02 10:30:20;;;;;;;35.08;16.67;;;19.80;99.90;;;;;;4994084;28;20038;-73
2023/10/02 10:32:47;;;;;;;31.00;15.57;;;19.80;99.90;;;;;;4996347;28;20033;-73
2023/10/02 10:35:57;;;;;;;34.00;15.48;;;19.70;99.90;;;;;;4977051;28;20427;-72
2023/10/02 10:38:26;;;;;;;33.00;17.25;;;19.80;99.90;;;;;;4951240;28;20046;-73
2023/10/02 10:40:55;;;;;;;36.33;17.08;;;20.00;99.90;;;;;;4997065;28;20038;-72
2023/10/02 10:43:26;;;;;;;38.47;17.08;;;20.00;99.90;;;;;;5001148;28;20469;-72
2023/10/02 10:45:54;;;;;;;36.05;17.63;;;20.20;99.90;;;;;;4988795;28;20030;-72
2023/10/02 10:48:23;;;;;;;35.47;16.52;;;20.20;99.90;;;;;;4994332;28;20044;-73
2023/10/02 10:50:57;;;;;;;36.75;17.17;;;20.40;99.90;;;;;;4997682;28;20032;-73
2023/10/02 10:53:26;;;;;;;28.17;16.13;;;20.50;99.90;;;;;;4992874;28;20113;-73
2023/10/02 10:56:17;;;;;;;35.83;17.38;;;20.70;99.90;;;;;;4997811;28;20193;-73
2023/10/02 10:58:44;;;;;;;33.85;15.68;;;20.60;99.90;;;;;;4991958;28;20054;-73
2023/10/02 11:01:16;;;;;;;37.20;17.65;;;20.80;99.90;;;;;;4988835;28;20029;-73
2023/10/02 11:03:43;;;;;;;35.33;17.02;;;20.80;99.90;;;;;;4989805;28;20448;-73
2023/10/02 11:06:10;;;;;;;29.98;16.65;;;21.00;99.90;;;;;;4993181;28;20087;-73
2023/10/02 11:08:40;;;;;;;35.35;15.95;;;21.30;99.90;;;;;;4991210;28;20065;-74
2023/10/02 11:11:19;;;;;;;31.67;16.40;;;21.40;99.80;;;;;;4996550;28;20026;-73
2023/10/02 11:14:00;;;;;;;37.95;16.10;;;21.30;99.60;;;;;;4990101;28;20122;-73
2023/10/02 11:16:37;;;;;;;32.70;17.48;;;21.30;99.90;;;;;;4997196;28;20132;-73
2023/10/02 11:19:55;;;;;;;33.20;17.38;;;21.30;99.60;;;;;;4989238;28;20042;-73
2023/10/02 11:24:44;;;;;;;33.63;15.85;;;21.50;99.50;;;;;;4989118;28;20041;-73
2023/10/02 11:27:16;;;;;;;35.67;16.77;;;21.50;99.60;;;;;;5000922;28;20029;-73
2023/10/02 11:29:45;;;;;;;35.00;16.67;;;21.50;99.90;;;;;;4985257;28;20058;-73
2023/10/02 11:32:27;;;;;;;38.92;17.17;;;21.80;99.70;;;;;;4996681;28;20030;-73
2023/10/02 11:34:59;;;;;;;35.40;16.55;;;22.30;99.50;;;;;;4991557;28;20081;-73
2023/10/02 11:37:26;;;;;;;42.13;17.90;;;22.20;99.30;;;;;;4986522;28;20038;-73
2023/10/02 11:39:55;;;;;;;38.78;17.33;;;21.90;99.80;;;;;;4985536;28;20099;-73
2023/10/02 11:42:22;;;;;;;37.60;17.95;;;22.00;98.50;;;;;;4992927;28;20029;-73
2023/10/02 11:44:47;;;;;;;31.83;16.40;;;22.00;98.80;;;;;;4998082;28;20056;-73
2023/10/02 11:47:14;;;;;;;29.80;15.15;;;22.10;99.10;;;;;;4992233;28;20096;-73
2023/10/02 11:49:40;;;;;;;33.08;16.65;;;22.30;99.30;;;;;;4984722;28;20081;-73
2023/10/02 11:52:06;;;;;;;29.75;15.32;;;22.50;98.90;;;;;;4993298;28;20026;-73
2023/10/02 11:54:36;;;;;;;36.88;17.63;;;22.60;98.80;;;;;;4997797;28;20021;-73
2023/10/02 11:57:10;;;;;;;35.53;16.88;;;22.50;98.50;;;;;;4993836;28;20113;-73
2023/10/02 11:59:47;;;;;;;36.33;17.08;;;22.60;98.50;;;;;;4981979;28;20078;-73
2023/10/02 12:02:16;;;;;;;32.80;16.75;;;22.50;97.90;;;;;;4988821;28;20053;-73
2023/10/02 12:04:43;;;;;;;31.33;16.50;;;22.50;97.90;;;;;;4982413;28;20031;-73
2023/10/02 12:07:15;;;;;;;34.15;16.27;;;22.50;98.20;;;;;;4988636;28;20022;-73
2023/10/02 12:09:41;;;;;;;33.85;15.70;;;22.60;98.50;;;;;;4981128;28;20096;-74
2023/10/02 12:12:07;;;;;;;34.03;17.10;;;22.70;98.60;;;;;;4992371;28;20066;-73
2023/10/02 12:14:33;;;;;;;33.85;16.70;;;22.90;98.30;;;;;;4993340;28;20422;-73
2023/10/02 12:16:58;;;;;;;37.35;18.40;;;22.70;98.20;;;;;;4990763;28;20040;-74
2023/10/02 12:19:36;;;;;;;35.95;16.98;;;22.90;97.80;;;;;;4985683;28;20112;-73
2023/10/02 12:22:05;;;;;;;34.42;16.63;;;22.80;98.00;;;;;;4983371;28;20030;-73
2023/10/02 12:24:32;;;;;;;33.00;17.05;;;23.00;98.20;;;;;;4985596;28;20042;-72
2023/10/02 12:26:58;;;;;;;35.08;17.73;;;23.20;98.20;;;;;;4988623;28;20029;-73
2023/10/02 12:29:27;;;;;;;31.55;17.00;;;23.00;97.20;;;;;;4990688;28;20038;-73
2023/10/02 12:31:53;;;;;;;34.10;16.13;;;23.10;97.70;;;;;;4984774;28;20037;-72
2023/10/02 12:34:20;;;;;;;37.17;16.80;;;23.10;97.30;;;;;;4992260;28;20036;-72
2023/10/02 12:36:49;;;;;;;37.75;16.30;;;23.20;98.20;;;;;;4981640;28;20030;-72
2023/10/02 12:39:16;;;;;;;35.42;17.98;;;23.40;98.80;;;;;;4985760;28;20479;-72
2023/10/02 12:41:42;;;;;;;34.70;17.80;;;23.20;97.30;;;;;;4967660;28;20608;-72
2023/10/02 12:44:08;;;;;;;34.50;16.73;;;23.10;98.00;;;;;;4987331;28;20033;-72
2023/10/02 12:46:50;;;;;;;37.17;16.83;;;23.30;98.00;;;;;;4986964;28;20108;-72
2023/10/02 12:49:19;;;;;;;37.63;16.92;;;23.50;98.10;;;;;;4988779;28;20054;-73
2023/10/02 12:51:45;;;;;;;33.22;17.23;;;23.50;96.90;;;;;;4984878;28;20033;-72
2023/10/02 12:54:11;;;;;;;33.75;16.83;;;23.30;97.30;;;;;;4989782;28;20034;-71
2023/10/02 12:56:39;;;;;;;31.70;15.20;;;23.30;97.70;;;;;;4983691;28;20087;-71
2023/10/02 12:59:12;;;;;;;38.63;16.88;;;23.40;97.70;;;;;;4986784;28;20034;-71
2023/10/02 13:01:39;;;;;;;29.98;15.43;;;23.50;97.80;;;;;;4983211;28;20046;-73
2023/10/02 13:04:05;;;;;;;32.33;17.38;;;23.70;97.90;;;;;;4991770;28;20060;-72
2023/10/02 13:06:31;;;;;;;37.67;16.55;;;23.80;98.40;;;;;;4995177;28;20285;-72
2023/10/02 13:09:14;;;;;;;29.60;16.95;;;23.80;97.60;;;;;;4988116;28;20125;-72
2023/10/02 13:11:40;;;;;;;32.55;17.55;;;23.70;97.20;;;;;;4993722;28;20388;-72
2023/10/02 13:14:08;;;;;;;35.20;16.33;;;23.70;97.50;;;;;;4986689;28;20026;-72
2023/10/02 13:16:36;;;;;;;31.80;16.13;;;23.70;97.90;;;;;;4989806;28;20073;-72
2023/10/02 13:19:06;;;;;;;34.40;16.80;;;23.80;97.40;;;;;;4985930;28;20034;-71
2023/10/02 13:21:31;;;;;;;32.50;16.63;;;23.70;97.50;;;;;;4990134;28;20022;-72
2023/10/02 13:23:57;;;;;;;35.70;17.45;;;23.80;98.10;;;;;;4991745;28;20030;-72
2023/10/02 13:26:23;;;;;;;34.85;17.27;;;23.90;97.90;;;;;;4997582;28;20369;-71
2023/10/02 13:28:52;;;;;;;32.80;16.80;;;24.00;98.20;;;;;;5004049;28;20058;-73
2023/10/02 13:31:19;;;;;;;32.05;15.98;;;24.00;97.80;;;;;;5005874;28;20045;-73
2023/10/02 13:33:51;;;;;;;35.53;14.45;;;23.90;97.40;;;;;;5006788;28;20059;-73
2023/10/02 13:36:27;;;;;;;31.88;16.70;;;23.70;97.40;;;;;;5008997;28;20029;-73
2023/10/02 13:38:56;;;;;;;32.20;16.27;;;23.60;97.30;;;;;;5011076;28;20065;-72
2023/10/02 13:41:23;;;;;;;32.15;16.88;;;23.80;98.20;;;;;;4996813;28;20472;-72